Airfield :
LOGIN :

Register | Disclaimer

   EN    FR    IT 

 










Legend :    VFR   Marginal VFR   IFR   Intensive IFR   Very Intensive IFR
Visi :
Ceiling :
>= 8 km
>= 3000ft
5 to 8 km
1000 to 3000 ft
1500m to 5 km
500 to 1000 ft
800 to 1500m
200 to 500 ft
< 800m
< 200 ft
Symbols :   Thunderstorms  Fog  Heavy snow  Heavy precipitations  Wind > 20 kt
SIGMETs :     Misc.  Thunderstorms  Icing  Turbulence  Mountain Waves  Volcanic Ashes







- Airport Elevation : 32 ft
- IATA code : LKZ


EGUL - RAF Lakenheath

CURRENT METAR :
  • 211156Z AUTO 26003KT 9999 FEW044 25/13 A2993 RMK AO2 SLP138 T02530132 10257 20159 55000 $

EXPIRED METARs :
  • 211056Z AUTO 00000KT 9999 CLR 24/14 A2993 RMK AO2 SLP138 T02440136 $
  • 210956Z AUTO 27005KT 9999 CLR 24/14 A2993 RMK AO2 SLP138 T02350139 $

TAF AMD TAF EGUL
Valid from the 20 at 16:00 until the 21 at 18:00 UTC


201644Z 2016/2118 15009KT 9999 SCT070 QNH2987INS
TEMPO 2017/2022 8000 -SHRA SCT030 BKN070
BECMG 2021/2022 VRB06KT 9999 BKN050 QNH2989INS
BECMG 2110/2111 VRB06KT 9999 FEW050 QNH2990INS TX29/2113Z TN09/2104Z LAST NO AMDS AFT 2017 NEXT 2220
No reported NOTAMs for that airfield.



MET'MAP, your aeronautical weather chart ! - Copyright ORBIFLY December 2007 - Disclaimer

ORBIFLY MET'MAP TEAM :

Programming & Development : Alexandra Zaïnal
Concept & Development : Baudouin d'Aumeries
Co-Development & Prog : Marc-Olivier Méhu
Technical & hardware support : Manuel Goepfert

Contact : metmap@orbifly.com




SOURCES & CREDITS :

   NOAA